Oswego, Oregon
Current Conditions -  °F | °C
As of 1:53 PM on Tuesday 25 Nov 2014 (Local Time) from KUAO Reporting Station
Overcast Overcast  
Wind Chill: 60°   Ceiling: 1600
Heat Index: 60°   Visibility: 10mi
Dew Point: 55°   Wind: 10mph
Humidity: 83%   Direction: 200°SSW
Pressure: 30.33"   Gusts: NA
Location:  45.4082°N, 122.683°W
Report Text: KUAO 252153Z AUTO 20009KT 10SM OVC016 16/13 A3033 RMK AO2 SLP269 T01560128
Loading
Personal Weather Stations






























Interactive Weather Map New forecast layout! Learn more

10-Day Weather Forecast

Advertisements
Track Severe Weather on mobile